createdAt,value
2018-03-03T00:00:26.917Z,101.85
2018-03-03T00:02:54.523Z,91.82
2018-03-03T00:05:22.874Z,97.60
2018-03-03T00:07:50.456Z,109.32
2018-03-03T00:10:18.831Z,93.65
2018-03-03T00:12:46.409Z,99.65
2018-03-03T00:15:14.755Z,105.72
2018-03-03T00:17:42.358Z,92.30
2018-03-03T00:20:09.938Z,99.07
2018-03-03T00:22:41.264Z,93.35
2018-03-03T00:25:08.870Z,91.87
2018-03-03T00:27:36.450Z,105.28
2018-03-03T00:30:04.031Z,92.18
2018-03-03T00:32:32.406Z,109.72
2018-03-03T00:35:00.744Z,97.35
2018-03-03T00:37:28.333Z,105.93
2018-03-03T00:39:55.957Z,104.07
2018-03-03T00:42:23.538Z,105.65
2018-03-03T00:44:51.132Z,109.00
2018-03-03T00:47:19.507Z,95.00
2018-03-03T00:49:47.851Z,110.22
2018-03-03T00:52:15.430Z,94.00
2018-03-03T00:54:43.040Z,108.32
2018-03-03T00:57:10.614Z,104.30
2018-03-03T00:59:38.184Z,96.82
2018-03-03T01:02:05.799Z,100.18
2018-03-03T01:04:33.376Z,98.78
2018-03-03T01:07:00.950Z,106.82
2018-03-03T01:09:28.546Z,95.47
2018-03-03T01:11:56.130Z,104.18
2018-03-03T01:14:24.470Z,112.40
2018-03-03T01:16:52.074Z,104.85
2018-03-03T01:19:20.411Z,100.97
2018-03-03T01:21:47.990Z,102.38
2018-03-03T01:24:15.591Z,93.45
2018-03-03T01:26:43.165Z,97.05
2018-03-03T01:29:10.752Z,91.28
2018-03-03T01:31:38.367Z,110.53
2018-03-03T01:34:05.956Z,101.00
2018-03-03T01:36:33.551Z,100.70
2018-03-03T01:39:01.933Z,98.20
2018-03-03T01:41:30.285Z,93.43
2018-03-03T01:43:57.864Z,103.70
2018-03-03T01:46:25.472Z,101.38
2018-03-03T01:48:53.047Z,108.65
2018-03-03T01:51:32.486Z,107.43
2018-03-03T01:54:00.064Z,92.30
2018-03-03T01:56:27.640Z,97.60
2018-03-03T01:58:55.234Z,96.07
2018-03-03T02:01:22.820Z,102.20
2018-03-03T02:03:50.397Z,98.68
2018-03-03T02:06:18.004Z,92.80
2018-03-03T02:08:46.354Z,108.37
2018-03-03T02:11:13.925Z,107.53
2018-03-03T02:13:42.305Z,95.18
2018-03-03T02:16:09.886Z,106.55
2018-03-03T02:18:37.465Z,112.03
2018-03-03T02:21:05.060Z,93.35
2018-03-03T02:23:32.640Z,88.47
2018-03-03T02:26:00.213Z,112.20
2018-03-03T02:28:28.575Z,94.25
2018-03-03T02:30:56.153Z,88.97
2018-03-03T02:33:24.500Z,105.28
2018-03-03T02:35:52.115Z,85.12
2018-03-03T02:38:19.699Z,84.25
2018-03-03T02:40:47.291Z,90.93
2018-03-03T02:43:14.899Z,85.12
2018-03-03T02:45:42.479Z,93.62
2018-03-03T02:48:10.060Z,101.72
2018-03-03T02:50:37.655Z,86.63
2018-03-03T02:53:06.030Z,82.40
2018-03-03T02:55:34.383Z,88.87
2018-03-03T02:58:01.966Z,93.47
2018-03-03T03:00:30.342Z,83.53
2018-03-03T03:02:58.697Z,87.03
2018-03-03T03:05:26.275Z,81.97
2018-03-03T03:07:54.638Z,86.25
2018-03-03T03:10:22.216Z,82.15
2018-03-03T03:12:50.591Z,82.85
2018-03-03T03:15:18.171Z,92.37
2018-03-03T03:17:46.533Z,89.20
2018-03-03T03:20:14.880Z,94.07
2018-03-03T03:22:43.220Z,81.82
2018-03-03T03:25:10.819Z,90.70
2018-03-03T03:27:38.394Z,80.10
2018-03-03T03:30:05.995Z,86.12
2018-03-03T03:32:33.590Z,94.87
2018-03-03T03:35:01.180Z,91.10
2018-03-03T03:37:28.763Z,88.28
2018-03-03T03:39:57.102Z,86.55
2018-03-03T03:42:24.622Z,84.50
2018-03-03T03:44:52.143Z,87.37
2018-03-03T03:47:19.715Z,91.78
2018-03-03T03:49:48.015Z,92.40
2018-03-03T03:52:15.569Z,77.43
2018-03-03T03:54:43.107Z,88.25
2018-03-03T03:57:10.648Z,80.90
2018-03-03T03:59:38.190Z,98.60
2018-03-03T04:02:05.762Z,98.12
2018-03-03T04:04:33.291Z,86.95
2018-03-03T04:07:00.814Z,91.97
2018-03-03T04:09:29.172Z,105.07
2018-03-03T04:11:56.704Z,106.45
2018-03-03T04:14:24.234Z,91.60
2018-03-03T04:16:51.797Z,81.22
2018-03-03T04:19:19.324Z,94.57
2018-03-03T04:21:47.609Z,79.22
2018-03-03T04:24:15.946Z,92.05
2018-03-03T04:26:43.483Z,81.37
2018-03-03T04:29:11.026Z,84.75
2018-03-03T04:31:38.574Z,86.93
2018-03-03T04:34:06.116Z,68.72
2018-03-03T04:36:34.408Z,84.72
2018-03-03T04:39:01.967Z,70.65
2018-03-03T04:41:29.501Z,82.03
2018-03-03T04:43:57.802Z,79.22
2018-03-03T04:46:25.347Z,75.50
2018-03-03T04:48:53.651Z,77.45
2018-03-03T04:51:21.188Z,84.93
2018-03-03T04:53:49.506Z,78.62
2018-03-03T04:56:17.050Z,79.57
2018-03-03T04:58:50.168Z,109.65
2018-03-03T05:04:47.434Z,75.70
2018-03-03T05:07:20.814Z,79.43
2018-03-03T05:09:48.370Z,80.40
2018-03-03T05:12:21.530Z,82.53
2018-03-03T05:18:09.268Z,86.18
2018-03-03T05:20:51.699Z,81.93
2018-03-03T05:23:25.573Z,79.65
2018-03-03T05:25:58.824Z,71.47
2018-03-03T05:28:32.031Z,77.47
2018-03-03T05:34:04.967Z,82.35
2018-03-03T05:39:48.683Z,78.37
2018-03-03T05:42:21.919Z,84.43
2018-03-03T05:45:06.286Z,90.60
2018-03-03T05:47:44.517Z,94.37
2018-03-03T05:50:18.578Z,80.50
2018-03-03T05:56:06.816Z,95.43
2018-03-03T05:58:40.196Z,83.85
2018-03-03T06:01:11.445Z,84.87
2018-03-03T06:03:44.582Z,91.03
2018-03-03T06:06:17.813Z,89.85
2018-03-03T06:08:50.732Z,86.12
2018-03-03T06:11:18.260Z,92.25
2018-03-03T06:13:45.802Z,86.25
2018-03-03T06:16:14.138Z,102.07
2018-03-03T06:18:41.651Z,85.97
2018-03-03T06:21:09.936Z,92.65
2018-03-03T06:23:37.502Z,88.15
2018-03-03T06:26:05.020Z,90.18
2018-03-03T06:28:32.551Z,91.75
2018-03-03T06:31:00.136Z,95.62
2018-03-03T06:33:27.680Z,83.47
2018-03-03T06:35:55.206Z,84.97
2018-03-03T06:38:22.759Z,83.22
2018-03-03T06:40:50.322Z,90.05
2018-03-03T06:43:17.871Z,77.80
2018-03-03T06:45:45.437Z,85.22
2018-03-03T06:48:12.968Z,84.32
2018-03-03T06:50:41.260Z,89.68
2018-03-03T06:53:08.826Z,80.55
2018-03-03T06:55:36.355Z,79.47
2018-03-03T06:58:03.873Z,77.00
2018-03-03T07:00:31.439Z,87.22
2018-03-03T07:02:58.966Z,83.87
2018-03-03T07:05:26.524Z,77.85
2018-03-03T07:07:54.072Z,84.75
2018-03-03T07:10:22.366Z,88.87
2018-03-03T07:12:49.893Z,80.57
2018-03-03T07:15:28.920Z,77.95
2018-03-03T07:17:57.210Z,84.15
2018-03-03T07:20:25.522Z,79.85
2018-03-03T07:22:53.074Z,82.45
2018-03-03T07:25:20.588Z,84.57
2018-03-03T07:27:48.882Z,73.78
2018-03-03T07:30:17.205Z,63.95
2018-03-03T07:32:44.715Z,79.82
2018-03-03T07:35:13.014Z,76.78
2018-03-03T07:37:40.590Z,63.45
2018-03-03T07:40:08.117Z,55.30
2018-03-03T07:42:35.666Z,65.72
2018-03-03T07:45:03.999Z,65.93
2018-03-03T07:47:31.531Z,61.88
2018-03-03T07:49:59.076Z,59.42
2018-03-03T07:52:26.624Z,58.78
2018-03-03T07:54:54.918Z,55.97
2018-03-03T07:57:22.496Z,57.72
2018-03-03T07:59:50.029Z,51.20
2018-03-03T08:02:17.566Z,59.05
2018-03-03T08:04:45.852Z,39.92
2018-03-03T08:07:14.159Z,36.72
2018-03-03T08:09:41.703Z,39.42
2018-03-03T08:12:09.276Z,35.33
2018-03-03T08:14:36.826Z,37.58
2018-03-03T08:17:04.354Z,25.17
2018-03-03T08:19:32.630Z,37.97
2018-03-03T08:22:00.924Z,26.70
2018-03-03T08:24:30.179Z,31.23
2018-03-03T08:26:58.558Z,30.00
2018-03-03T08:29:26.103Z,25.48
2018-03-03T08:31:53.624Z,34.00
2018-03-03T08:34:21.931Z,33.60
2018-03-03T08:36:49.472Z,33.47
2018-03-03T08:39:17.009Z,52.08
2018-03-03T08:41:45.307Z,43.38
2018-03-03T08:44:12.865Z,46.78
2018-03-03T08:46:40.378Z,45.08
2018-03-03T08:49:07.920Z,36.17
2018-03-03T08:51:35.478Z,27.52
2018-03-03T08:54:03.007Z,32.45
2018-03-03T08:56:30.518Z,30.08
2018-03-03T08:58:58.069Z,25.17
2018-03-03T09:01:25.598Z,30.40
2018-03-03T09:03:53.109Z,23.48
2018-03-03T09:06:21.432Z,29.85
2018-03-03T09:08:48.964Z,26.20
2018-03-03T09:11:16.484Z,29.42
2018-03-03T09:13:44.040Z,29.65
2018-03-03T09:16:11.549Z,28.05
2018-03-03T09:18:39.091Z,27.70
2018-03-03T09:21:07.403Z,28.35
2018-03-03T09:23:34.941Z,28.00
2018-03-03T09:26:02.475Z,27.52
2018-03-03T09:28:30.803Z,22.10
2018-03-03T09:30:58.335Z,27.87
2018-03-03T09:33:25.886Z,22.13
2018-03-03T09:35:53.465Z,27.62
2018-03-03T09:38:20.983Z,16.65
2018-03-03T09:40:48.510Z,17.40
2018-03-03T09:43:16.039Z,19.20
2018-03-03T09:45:43.590Z,17.10
2018-03-03T09:48:11.126Z,14.18
2018-03-03T09:50:39.434Z,15.20
2018-03-03T09:53:06.945Z,17.40
2018-03-03T09:55:34.474Z,14.80
2018-03-03T09:58:02.022Z,20.98
2018-03-03T10:00:29.555Z,14.77
2018-03-03T10:02:57.103Z,21.42
2018-03-03T10:05:25.406Z,17.25
2018-03-03T10:07:52.942Z,14.30
2018-03-03T10:10:21.242Z,13.82
2018-03-03T10:12:48.784Z,12.95
2018-03-03T10:15:16.333Z,16.12
2018-03-03T10:17:44.642Z,13.00
2018-03-03T10:20:12.192Z,21.02
2018-03-03T10:22:39.716Z,16.40
2018-03-03T10:25:07.239Z,17.37
2018-03-03T10:27:34.803Z,14.07
2018-03-03T10:30:02.343Z,15.63
2018-03-03T10:32:29.876Z,15.48
2018-03-03T10:34:57.435Z,17.45
2018-03-03T10:37:24.985Z,16.70
2018-03-03T10:39:53.310Z,16.35
2018-03-03T10:42:20.855Z,16.70
2018-03-03T10:44:48.377Z,15.60
2018-03-03T10:47:16.662Z,17.20
2018-03-03T10:49:44.236Z,19.35
2018-03-03T10:52:11.773Z,14.32
2018-03-03T10:54:40.092Z,15.73
2018-03-03T10:57:07.650Z,13.95
2018-03-03T10:59:35.215Z,10.55
2018-03-03T11:02:02.738Z,16.35
2018-03-03T11:04:30.300Z,19.62
2018-03-03T11:06:57.812Z,21.83
2018-03-03T11:09:25.330Z,19.83
2018-03-03T11:11:52.891Z,14.73
2018-03-03T11:14:20.401Z,24.85
2018-03-03T11:16:47.928Z,21.73
2018-03-03T11:19:15.480Z,27.17
2018-03-03T11:21:42.992Z,24.12
2018-03-03T11:24:11.293Z,27.42
2018-03-03T11:26:38.849Z,28.98
2018-03-03T11:29:06.399Z,32.72
2018-03-03T11:31:34.690Z,35.50
2018-03-03T11:34:02.252Z,36.45
2018-03-03T11:36:29.788Z,33.25
2018-03-03T11:38:58.154Z,33.95
2018-03-03T11:41:25.724Z,34.97
2018-03-03T11:43:53.273Z,36.50
2018-03-03T11:46:20.815Z,28.62
2018-03-03T11:48:48.366Z,32.78
2018-03-03T11:51:15.886Z,28.60
2018-03-03T11:53:43.419Z,29.33
2018-03-03T11:56:11.718Z,29.90
2018-03-03T11:58:39.254Z,34.65
2018-03-03T12:01:07.542Z,32.08
2018-03-03T12:03:35.861Z,33.47
2018-03-03T12:06:03.382Z,34.28
2018-03-03T12:08:30.933Z,37.00
2018-03-03T12:10:58.518Z,37.08
2018-03-03T12:13:26.056Z,36.80
2018-03-03T12:15:54.377Z,38.08
2018-03-03T12:18:22.698Z,46.90
2018-03-03T12:20:50.990Z,42.22
2018-03-03T12:23:19.282Z,32.63
2018-03-03T12:25:46.841Z,40.08
2018-03-03T12:28:14.372Z,41.17
2018-03-03T12:30:42.666Z,38.78
2018-03-03T12:33:10.216Z,50.75
2018-03-03T12:35:38.503Z,42.22
2018-03-03T12:38:06.035Z,39.83
2018-03-03T12:40:34.360Z,34.40
2018-03-03T12:43:01.931Z,41.90
2018-03-03T12:45:29.441Z,39.40
2018-03-03T12:47:57.763Z,49.65
2018-03-03T12:50:25.299Z,41.47
2018-03-03T12:52:52.834Z,36.25
2018-03-03T12:55:21.151Z,43.63
2018-03-03T12:57:48.684Z,46.28
2018-03-03T13:00:16.241Z,43.83
2018-03-03T13:02:44.576Z,56.63
2018-03-03T13:05:12.106Z,48.17
2018-03-03T13:07:39.641Z,45.28
2018-03-03T13:10:07.212Z,45.67
2018-03-03T13:12:34.745Z,46.42
2018-03-03T13:15:03.040Z,52.90
2018-03-03T13:17:30.604Z,68.93
2018-03-03T13:19:58.131Z,62.22
2018-03-03T13:22:26.417Z,66.35
2018-03-03T13:24:54.742Z,58.35
2018-03-03T13:27:22.289Z,49.45
2018-03-03T13:29:49.824Z,65.35
2018-03-03T13:32:17.387Z,57.05
2018-03-03T13:34:44.932Z,52.88
2018-03-03T13:37:13.252Z,52.45
2018-03-03T13:39:40.810Z,55.65
2018-03-03T13:42:08.357Z,58.00
2018-03-03T13:44:35.888Z,56.90
2018-03-03T13:47:04.211Z,54.75
2018-03-03T13:49:31.731Z,56.03
2018-03-03T13:52:00.024Z,51.50
2018-03-03T13:54:27.571Z,56.35
2018-03-03T13:56:55.102Z,53.95
2018-03-03T13:59:22.643Z,58.25
2018-03-03T14:01:50.196Z,54.70
2018-03-03T14:04:17.724Z,50.35
2018-03-03T14:06:45.254Z,57.08
2018-03-03T14:09:12.833Z,61.13
2018-03-03T14:11:40.359Z,62.55
2018-03-03T14:14:07.880Z,60.65
2018-03-03T14:16:35.455Z,59.38
2018-03-03T14:19:03.006Z,53.25
2018-03-03T14:21:30.522Z,60.35
2018-03-03T14:23:58.102Z,59.60
2018-03-03T14:26:25.636Z,74.05
2018-03-03T14:28:53.930Z,61.85
2018-03-03T14:31:21.501Z,59.58
2018-03-03T14:33:49.040Z,69.32
2018-03-03T14:36:16.569Z,70.45
2018-03-03T14:38:44.118Z,67.45
2018-03-03T14:41:11.637Z,67.80
2018-03-03T14:43:39.165Z,69.32
2018-03-03T14:46:07.494Z,74.82
2018-03-03T14:48:35.014Z,66.53
2018-03-03T14:51:02.597Z,70.00
2018-03-03T14:53:30.115Z,78.70
2018-03-03T14:55:58.414Z,67.35
2018-03-03T14:58:25.945Z,65.97
2018-03-03T15:00:54.289Z,70.70
2018-03-03T15:03:21.859Z,72.87
2018-03-03T15:05:49.418Z,74.55
2018-03-03T15:08:16.969Z,75.50
2018-03-03T15:10:44.521Z,68.75
2018-03-03T15:13:12.044Z,68.37
2018-03-03T15:15:39.623Z,81.10
2018-03-03T15:18:07.157Z,76.93
2018-03-03T15:20:34.675Z,80.95
2018-03-03T15:23:02.234Z,82.97
2018-03-03T15:25:29.775Z,73.25
2018-03-03T15:27:57.312Z,71.60
2018-03-03T15:30:24.884Z,72.22
2018-03-03T15:32:52.436Z,66.45
2018-03-03T15:35:19.976Z,70.62
2018-03-03T15:37:47.539Z,71.82
2018-03-03T15:40:15.073Z,71.07
2018-03-03T15:42:43.367Z,74.22
2018-03-03T15:45:10.941Z,77.12
2018-03-03T15:47:38.476Z,66.65
2018-03-03T15:50:06.011Z,69.03
2018-03-03T15:52:34.339Z,70.22
2018-03-03T15:55:01.884Z,59.95
2018-03-03T15:57:29.441Z,68.22
2018-03-03T15:59:57.010Z,66.35
2018-03-03T16:02:24.556Z,68.65
2018-03-03T16:04:52.093Z,64.30
2018-03-03T16:07:20.421Z,61.63
2018-03-03T16:09:47.945Z,64.47
2018-03-03T16:12:15.485Z,66.85
2018-03-03T16:14:43.810Z,65.12
2018-03-03T16:17:11.350Z,74.50
2018-03-03T16:19:38.891Z,78.80
2018-03-03T16:22:07.219Z,63.45
2018-03-03T16:24:35.512Z,68.72
2018-03-03T16:27:03.037Z,71.72
2018-03-03T16:29:30.588Z,71.43
2018-03-03T16:31:58.134Z,68.32
2018-03-03T16:34:25.659Z,72.72
2018-03-03T16:36:53.222Z,61.53
2018-03-03T16:39:20.758Z,61.78
2018-03-03T16:41:48.322Z,65.55
2018-03-03T16:44:15.876Z,65.18
2018-03-03T16:46:43.394Z,62.35
2018-03-03T16:49:10.937Z,62.55
2018-03-03T16:51:39.251Z,59.30
2018-03-03T16:54:06.787Z,60.20
2018-03-03T16:56:34.316Z,62.25
2018-03-03T16:59:01.856Z,66.60
2018-03-03T17:01:29.376Z,53.90
2018-03-03T17:03:56.896Z,59.83
2018-03-03T17:06:24.445Z,59.90
2018-03-03T17:08:51.981Z,53.67
2018-03-03T17:11:20.276Z,64.62
2018-03-03T17:13:47.847Z,61.03
2018-03-03T17:16:16.147Z,61.25
2018-03-03T17:18:44.430Z,58.67
2018-03-03T17:21:11.972Z,52.15
2018-03-03T17:23:40.255Z,57.13
2018-03-03T17:26:08.586Z,61.42
2018-03-03T17:28:36.132Z,58.42
2018-03-03T17:31:03.655Z,64.68
2018-03-03T17:33:31.188Z,69.30
2018-03-03T17:35:58.746Z,65.90
2018-03-03T17:38:26.271Z,65.03
2018-03-03T17:40:53.808Z,70.35
2018-03-03T17:43:21.361Z,63.92
2018-03-03T17:45:48.908Z,65.82
2018-03-03T17:48:16.427Z,66.75
2018-03-03T17:50:43.982Z,69.43
2018-03-03T17:53:11.528Z,64.03
2018-03-03T17:55:39.054Z,71.70
2018-03-03T17:58:06.626Z,74.07
2018-03-03T18:00:34.180Z,70.75
2018-03-03T18:03:01.724Z,80.47
2018-03-03T18:05:29.293Z,73.25
2018-03-03T18:07:56.844Z,74.28
2018-03-03T18:10:24.384Z,97.25
2018-03-03T18:12:52.713Z,92.80
2018-03-03T18:15:20.229Z,73.35
2018-03-03T18:17:48.529Z,73.30
2018-03-03T18:20:16.133Z,73.95
2018-03-03T18:22:44.621Z,76.43
2018-03-03T18:25:12.146Z,79.62
2018-03-03T18:27:39.812Z,81.32
2018-03-03T18:30:07.330Z,96.72
2018-03-03T18:32:35.619Z,78.53
2018-03-03T18:35:03.165Z,79.20
2018-03-03T18:37:31.453Z,82.78
2018-03-03T18:39:58.986Z,79.87
2018-03-03T18:42:27.300Z,94.80
2018-03-03T18:44:54.837Z,77.68
2018-03-03T18:47:23.131Z,80.53
2018-03-03T18:49:50.702Z,78.45
2018-03-03T18:52:18.235Z,87.97
2018-03-03T18:54:45.756Z,92.40
2018-03-03T18:57:13.306Z,87.43
2018-03-03T18:59:40.848Z,102.00
2018-03-03T19:02:08.360Z,76.43
2018-03-03T19:04:36.692Z,79.20
2018-03-03T19:07:04.232Z,79.90
2018-03-03T19:09:31.777Z,91.87
2018-03-03T19:11:59.358Z,89.57
2018-03-03T19:14:26.908Z,99.37
2018-03-03T19:16:54.453Z,90.38
2018-03-03T19:19:22.048Z,257.25
2018-03-03T19:21:50.338Z,103.38
2018-03-03T19:24:17.873Z,93.72
2018-03-03T19:26:45.448Z,90.93
2018-03-03T19:29:12.968Z,97.88
2018-03-03T19:31:40.484Z,83.10
2018-03-03T19:34:08.060Z,86.53
2018-03-03T19:36:36.344Z,76.35
2018-03-03T19:39:04.630Z,71.12
2018-03-03T19:41:32.951Z,89.13
2018-03-03T19:44:00.497Z,83.75
2018-03-03T19:46:28.036Z,77.37
2018-03-03T19:48:55.613Z,79.53
2018-03-03T19:51:23.140Z,86.75
2018-03-03T19:53:51.415Z,97.15
2018-03-03T19:56:19.753Z,100.95
2018-03-03T19:58:47.297Z,87.55
2018-03-03T20:01:14.826Z,83.75
2018-03-03T20:03:42.365Z,79.60
2018-03-03T20:06:10.682Z,82.40
2018-03-03T20:08:38.232Z,88.55
2018-03-03T20:11:05.832Z,105.65
2018-03-03T20:13:33.348Z,90.78
2018-03-03T20:16:00.898Z,80.60
2018-03-03T20:18:28.455Z,85.35
2018-03-03T20:20:56.740Z,86.50
2018-03-03T20:23:24.271Z,91.20
2018-03-03T20:25:52.614Z,95.15
2018-03-03T20:28:20.163Z,78.43
2018-03-03T20:30:47.690Z,90.75
2018-03-03T20:33:15.263Z,85.95
2018-03-03T20:35:42.791Z,82.20
2018-03-03T20:38:11.084Z,95.68
2018-03-03T20:40:38.639Z,83.97
2018-03-03T20:43:06.154Z,84.93
2018-03-03T20:45:33.722Z,103.10
2018-03-03T20:48:01.277Z,92.43
2018-03-03T20:50:28.808Z,83.90
2018-03-03T20:52:56.323Z,103.65
2018-03-03T20:55:24.643Z,84.65
2018-03-03T20:57:52.190Z,96.90
2018-03-03T21:00:19.708Z,87.88
2018-03-03T21:02:48.030Z,77.90
2018-03-03T21:05:15.580Z,87.90
2018-03-03T21:07:43.104Z,85.50
2018-03-03T21:10:11.456Z,81.72
2018-03-03T21:12:43.470Z,96.63
2018-03-03T21:15:11.010Z,91.57
2018-03-03T21:17:39.316Z,94.00
2018-03-03T21:20:07.708Z,82.28
2018-03-03T21:22:35.276Z,83.35
2018-03-03T21:25:02.810Z,89.30
2018-03-03T21:27:30.346Z,99.32
2018-03-03T21:29:58.673Z,80.18
2018-03-03T21:32:26.196Z,97.18
2018-03-03T21:34:53.705Z,88.93
2018-03-03T21:37:21.247Z,91.55
2018-03-03T21:39:48.771Z,94.70
2018-03-03T21:42:17.046Z,117.87
2018-03-03T21:44:45.356Z,92.78
2018-03-03T21:47:12.891Z,105.32
2018-03-03T21:49:40.434Z,93.95
2018-03-03T21:52:08.747Z,97.62
2018-03-03T21:54:36.275Z,105.85
2018-03-03T21:57:04.568Z,89.20
2018-03-03T21:59:32.122Z,105.55
2018-03-03T22:01:59.684Z,105.68
2018-03-03T22:04:27.982Z,107.03
2018-03-03T22:06:55.565Z,114.50
2018-03-03T22:09:23.097Z,105.78
2018-03-03T22:11:50.644Z,110.97
2018-03-03T22:14:18.190Z,98.03
2018-03-03T22:16:45.726Z,110.20
2018-03-03T22:19:14.036Z,104.87
2018-03-03T22:21:41.592Z,138.02
2018-03-03T22:24:09.146Z,126.38
2018-03-03T22:26:36.670Z,132.80
2018-03-03T22:29:04.219Z,131.50
2018-03-03T22:31:31.747Z,129.77
2018-03-03T22:33:59.321Z,135.60
2018-03-03T22:36:26.889Z,151.68
2018-03-03T22:38:54.457Z,150.25
2018-03-03T22:41:21.976Z,145.90
2018-03-03T22:43:49.565Z,153.20
2018-03-03T22:46:17.103Z,136.85
2018-03-03T22:48:44.618Z,155.25
2018-03-03T22:51:12.939Z,149.70
2018-03-03T22:53:40.468Z,146.20
2018-03-03T22:56:08.782Z,139.75
2018-03-03T22:58:36.337Z,158.10
2018-03-03T23:01:03.857Z,146.05
2018-03-03T23:03:32.153Z,164.32
2018-03-03T23:05:59.781Z,169.10
2018-03-03T23:08:27.282Z,148.15
2018-03-03T23:10:54.816Z,150.02
2018-03-03T23:13:23.162Z,140.30
2018-03-03T23:15:50.680Z,151.00
2018-03-03T23:18:18.207Z,130.50
2018-03-03T23:20:46.516Z,123.95
2018-03-03T23:23:14.035Z,122.30
2018-03-03T23:25:42.334Z,126.70
2018-03-03T23:28:09.916Z,148.75
2018-03-03T23:30:37.465Z,126.10
2018-03-03T23:33:05.010Z,122.95
2018-03-03T23:35:32.567Z,141.27
2018-03-03T23:38:00.107Z,136.02
2018-03-03T23:40:28.404Z,148.02
2018-03-03T23:42:55.952Z,132.40
2018-03-03T23:45:24.278Z,135.55
2018-03-03T23:47:52.594Z,139.82
2018-03-03T23:50:20.924Z,130.25
2018-03-03T23:52:48.465Z,139.40
2018-03-03T23:55:15.999Z,137.98
2018-03-03T23:57:44.339Z,156.93
